createdAt,value
2022-09-06T00:01:48.164Z,62.30
2022-09-06T00:04:18.883Z,62.10
2022-09-06T00:06:49.192Z,62.20
2022-09-06T00:09:19.477Z,62.20
2022-09-06T00:11:49.754Z,62.10
2022-09-06T00:14:20.019Z,62.20
2022-09-06T00:16:50.311Z,62.40
2022-09-06T00:19:20.627Z,62.40
2022-09-06T00:21:50.886Z,62.50
2022-09-06T00:24:21.355Z,62.30
2022-09-06T00:26:51.623Z,62.20
2022-09-06T00:29:21.970Z,61.50
2022-09-06T00:31:52.211Z,61.20
2022-09-06T00:34:22.544Z,61.20
2022-09-06T00:36:52.758Z,61.20
2022-09-06T00:39:23.383Z,61.30
2022-09-06T00:41:53.712Z,61.30
2022-09-06T00:44:24.272Z,61.30
2022-09-06T00:46:56.671Z,61.40
2022-09-06T00:49:35.121Z,62.10
2022-09-06T00:52:12.948Z,61.30
2022-09-06T00:54:44.097Z,61.30
2022-09-06T00:57:16.639Z,61.30
2022-09-06T00:59:48.145Z,61.30
2022-09-06T01:02:18.447Z,61.30
2022-09-06T01:04:51.225Z,61.30
2022-09-06T01:07:37.976Z,61.20
2022-09-06T01:10:17.029Z,61.20
2022-09-06T01:13:10.396Z,61.20
2022-09-06T01:16:13.530Z,61.10
2022-09-06T01:19:33.974Z,61.00
2022-09-06T01:22:10.319Z,61.90
2022-09-06T01:25:04.319Z,61.10
2022-09-06T01:27:49.584Z,60.90
2022-09-06T01:30:21.488Z,60.80
2022-09-06T01:33:18.395Z,60.90
2022-09-06T01:35:55.352Z,60.70
2022-09-06T01:38:28.565Z,60.90
2022-09-06T01:40:58.841Z,60.80
2022-09-06T01:43:38.721Z,60.80
2022-09-06T01:46:30.352Z,60.60
2022-09-06T01:49:03.700Z,60.50
2022-09-06T01:51:59.187Z,60.50
2022-09-06T01:54:42.188Z,60.20
2022-09-06T01:57:19.534Z,60.50
2022-09-06T02:00:14.051Z,60.50
2022-09-06T02:03:30.524Z,60.60
2022-09-06T02:06:08.672Z,60.60
2022-09-06T02:08:46.449Z,60.80
2022-09-06T02:11:18.135Z,60.70
2022-09-06T02:13:56.404Z,60.80
2022-09-06T02:16:29.825Z,60.80
2022-09-06T02:19:02.364Z,60.70
2022-09-06T02:21:39.032Z,60.80
2022-09-06T02:24:13.849Z,60.80
2022-09-06T02:26:48.128Z,60.80
2022-09-06T02:29:19.535Z,60.70
2022-09-06T02:32:04.648Z,60.80
2022-09-06T02:34:34.839Z,60.70
2022-09-06T02:37:05.148Z,60.80
2022-09-06T02:39:35.523Z,61.00
2022-09-06T02:42:06.684Z,60.80
2022-09-06T02:44:36.858Z,60.90
2022-09-06T02:47:07.460Z,60.80
2022-09-06T02:49:37.708Z,60.70
2022-09-06T02:52:07.903Z,61.00
2022-09-06T02:54:38.031Z,61.50
2022-09-06T02:57:08.208Z,61.10
2022-09-06T02:59:38.396Z,60.80
2022-09-06T03:02:08.591Z,60.90
2022-09-06T03:04:38.791Z,60.80
2022-09-06T03:07:09.040Z,60.70
2022-09-06T03:09:39.262Z,61.00
2022-09-06T03:12:09.599Z,60.70
2022-09-06T03:14:39.874Z,60.90
2022-09-06T03:17:10.136Z,60.70
2022-09-06T03:19:40.278Z,60.80
2022-09-06T03:22:10.653Z,60.90
2022-09-06T03:24:40.883Z,60.80
2022-09-06T03:27:11.046Z,60.90
2022-09-06T03:29:41.166Z,60.60
2022-09-06T03:32:11.395Z,60.70
2022-09-06T03:34:41.528Z,60.60
2022-09-06T03:37:11.771Z,60.70
2022-09-06T03:39:42.268Z,60.60
2022-09-06T03:42:12.611Z,61.30
2022-09-06T03:44:42.821Z,60.70
2022-09-06T03:47:14.735Z,60.60
2022-09-06T03:49:47.002Z,60.60
2022-09-06T03:52:17.682Z,60.60
2022-09-06T03:54:47.900Z,60.60
2022-09-06T03:57:18.037Z,60.60
2022-09-06T03:59:48.176Z,60.50
2022-09-06T04:02:18.433Z,60.50
2022-09-06T04:04:48.749Z,61.10
2022-09-06T04:07:18.933Z,60.70
2022-09-06T04:09:49.198Z,61.00
2022-09-06T04:12:19.419Z,60.90
2022-09-06T04:14:49.567Z,60.60
2022-09-06T04:17:19.744Z,60.50
2022-09-06T04:19:49.861Z,60.60
2022-09-06T04:22:20.040Z,60.50
2022-09-06T04:24:50.153Z,60.50
2022-09-06T04:27:20.345Z,60.40
2022-09-06T04:29:50.548Z,60.40
2022-09-06T04:32:20.805Z,61.20
2022-09-06T04:34:51.042Z,60.40
2022-09-06T04:37:21.782Z,60.50
2022-09-06T04:39:52.212Z,60.40
2022-09-06T04:42:22.481Z,60.40
2022-09-06T04:50:25.648Z,60.50
2022-09-06T04:52:55.865Z,60.50
2022-09-06T04:55:28.113Z,60.50
2022-09-06T04:58:00.100Z,60.40
2022-09-06T05:00:33.450Z,60.40
2022-09-06T05:03:03.849Z,60.40
2022-09-06T05:05:34.130Z,60.30
2022-09-06T05:08:04.824Z,60.40
2022-09-06T05:10:35.419Z,60.40
2022-09-06T05:13:06.053Z,60.30
2022-09-06T05:18:38.036Z,60.40
2022-09-06T05:21:09.299Z,60.50
2022-09-06T05:23:39.734Z,60.50
2022-09-06T05:26:10.010Z,60.50
2022-09-06T05:28:40.286Z,60.40
2022-09-06T05:31:12.870Z,60.50
2022-09-06T05:33:43.180Z,60.60
2022-09-06T05:36:13.481Z,60.50
2022-09-06T05:38:43.717Z,60.60
2022-09-06T05:41:13.945Z,60.60
2022-09-06T05:43:44.274Z,60.60
2022-09-06T05:46:15.378Z,60.50
2022-09-06T05:48:45.895Z,60.60
2022-09-06T05:51:16.308Z,60.60
2022-09-06T05:53:47.809Z,60.50
2022-09-06T05:56:19.488Z,60.30
2022-09-06T05:58:49.636Z,60.50
2022-09-06T06:01:23.857Z,60.60
2022-09-06T06:03:59.064Z,60.50
2022-09-06T06:06:31.525Z,60.30
2022-09-06T06:09:03.105Z,60.30
2022-09-06T06:11:34.020Z,60.60
2022-09-06T06:14:07.598Z,60.50
2022-09-06T06:16:38.472Z,60.50
2022-09-06T06:19:08.807Z,60.40
2022-09-06T06:21:40.439Z,60.60
2022-09-06T06:24:10.767Z,60.60
2022-09-06T06:26:41.753Z,60.90
2022-09-06T06:29:12.114Z,60.40
2022-09-06T06:31:42.493Z,60.40
2022-09-06T06:34:12.743Z,60.30
2022-09-06T06:36:43.106Z,60.20
2022-09-06T06:39:13.256Z,60.20
2022-09-06T06:41:43.748Z,60.20
2022-09-06T06:44:13.974Z,60.20
2022-09-06T06:46:44.609Z,60.10
2022-09-06T06:49:14.837Z,60.10
2022-09-06T06:51:45.100Z,60.20
2022-09-06T06:54:15.374Z,60.00
2022-09-06T06:56:47.243Z,60.10
2022-09-06T06:59:17.457Z,60.00
2022-09-06T07:01:48.205Z,60.10
2022-09-06T07:04:18.558Z,59.90
2022-09-06T07:12:38.025Z,60.10
2022-09-06T07:15:09.017Z,60.00
2022-09-06T07:17:39.505Z,60.00
2022-09-06T07:22:42.913Z,60.00
2022-09-06T07:25:20.402Z,60.00
2022-09-06T07:27:51.609Z,59.90
2022-09-06T07:30:22.434Z,59.90
2022-09-06T07:32:52.833Z,60.00
2022-09-06T07:35:23.110Z,59.90
2022-09-06T07:37:58.332Z,60.00
2022-09-06T07:40:30.935Z,59.80
2022-09-06T07:43:02.079Z,59.90
2022-09-06T07:45:32.404Z,59.90
2022-09-06T07:48:02.967Z,60.00
2022-09-06T07:50:49.437Z,59.80
2022-09-06T07:53:29.817Z,59.70
2022-09-06T07:56:05.834Z,59.80
2022-09-06T07:58:36.750Z,59.70
2022-09-06T08:01:36.063Z,59.80
2022-09-06T08:04:11.705Z,60.10
2022-09-06T08:09:40.094Z,60.70
2022-09-06T08:12:10.673Z,61.00
2022-09-06T08:14:41.628Z,61.10
2022-09-06T08:17:11.866Z,61.10
2022-09-06T08:19:42.266Z,61.00
2022-09-06T08:22:12.546Z,60.90
2022-09-06T08:24:42.809Z,60.90
2022-09-06T08:27:13.573Z,60.80
2022-09-06T08:29:43.903Z,60.80
2022-09-06T08:32:14.135Z,60.70
2022-09-06T08:34:44.311Z,60.50
2022-09-06T08:37:14.566Z,60.40
2022-09-06T08:39:44.898Z,60.30
2022-09-06T08:42:15.313Z,60.30
2022-09-06T08:47:25.085Z,60.30
2022-09-06T08:50:00.165Z,60.40
2022-09-06T08:53:17.861Z,60.50
2022-09-06T08:56:12.380Z,60.60
2022-09-06T08:59:02.968Z,60.80
2022-09-06T09:02:10.835Z,60.90
2022-09-06T09:04:56.452Z,60.90
2022-09-06T09:07:32.762Z,61.00
2022-09-06T09:10:09.889Z,60.90
2022-09-06T09:12:47.052Z,61.00
2022-09-06T09:15:20.074Z,60.90
2022-09-06T09:17:52.818Z,60.90
2022-09-06T09:20:24.173Z,60.80
2022-09-06T09:22:54.312Z,60.70
2022-09-06T09:25:27.830Z,60.70
2022-09-06T09:28:01.956Z,60.60
2022-09-06T09:30:58.440Z,60.70
2022-09-06T09:33:34.369Z,60.60
2022-09-06T09:36:15.807Z,60.80
2022-09-06T09:38:48.503Z,60.80
2022-09-06T09:41:35.410Z,60.70
2022-09-06T09:44:32.819Z,60.70
2022-09-06T09:47:03.250Z,60.80
2022-09-06T09:49:34.237Z,60.80
2022-09-06T09:52:13.552Z,60.70
2022-09-06T09:54:47.539Z,60.70
2022-09-06T09:57:21.225Z,60.70
2022-09-06T10:00:14.869Z,61.50
2022-09-06T10:02:45.518Z,60.60
2022-09-06T10:05:17.631Z,60.70
2022-09-06T10:07:59.907Z,60.70
2022-09-06T10:10:47.389Z,60.60
2022-09-06T10:13:35.916Z,60.60
2022-09-06T10:16:06.538Z,60.50
2022-09-06T10:18:54.527Z,60.70
2022-09-06T10:21:25.764Z,60.60
2022-09-06T10:24:27.318Z,60.70
2022-09-06T10:27:08.523Z,60.60
2022-09-06T10:29:58.673Z,60.70
2022-09-06T10:32:49.109Z,60.80
2022-09-06T10:35:40.050Z,60.70
2022-09-06T10:38:29.732Z,60.80
2022-09-06T10:41:24.292Z,60.90
2022-09-06T10:44:16.792Z,60.90
2022-09-06T10:46:48.146Z,61.00
2022-09-06T10:49:22.929Z,61.10
2022-09-06T10:52:00.268Z,60.90
2022-09-06T10:54:33.347Z,60.80
2022-09-06T11:00:14.909Z,60.70
2022-09-06T11:05:56.105Z,60.70
2022-09-06T11:08:47.025Z,60.80
2022-09-06T11:11:28.923Z,60.70
2022-09-06T11:14:02.465Z,60.70
2022-09-06T11:16:43.756Z,60.70
2022-09-06T11:19:39.768Z,60.60
2022-09-06T11:22:34.074Z,60.50
2022-09-06T11:25:10.274Z,60.50
2022-09-06T11:27:47.505Z,60.50
2022-09-06T11:30:19.834Z,60.50
2022-09-06T11:32:52.895Z,60.40
2022-09-06T11:35:34.805Z,60.40
2022-09-06T11:38:29.082Z,60.30
2022-09-06T11:41:09.234Z,60.20
2022-09-06T11:43:53.738Z,60.30
2022-09-06T11:46:39.671Z,60.30
2022-09-06T11:49:33.652Z,60.30
2022-09-06T11:52:05.473Z,60.30
2022-09-06T11:54:46.463Z,60.40
2022-09-06T11:57:24.706Z,60.30
2022-09-06T12:00:05.573Z,60.30
2022-09-06T12:02:42.640Z,60.30
2022-09-06T12:05:16.760Z,60.30
2022-09-06T12:08:29.771Z,60.30
2022-09-06T12:11:04.451Z,60.20
2022-09-06T12:13:44.416Z,60.50
2022-09-06T12:16:15.914Z,60.60
2022-09-06T12:18:52.253Z,60.60
2022-09-06T12:21:40.647Z,60.70
2022-09-06T12:24:31.536Z,60.70
2022-09-06T12:27:18.953Z,60.80
2022-09-06T12:29:59.909Z,60.90
2022-09-06T12:32:50.548Z,61.00
2022-09-06T12:38:24.357Z,61.10
2022-09-06T12:40:59.982Z,61.10
2022-09-06T12:43:31.278Z,61.10
2022-09-06T12:46:02.823Z,61.20
2022-09-06T12:48:42.834Z,61.20
2022-09-06T12:51:21.804Z,61.20
2022-09-06T12:54:04.499Z,61.30
2022-09-06T12:56:36.350Z,61.30
2022-09-06T12:59:26.178Z,61.30
2022-09-06T13:02:02.926Z,61.30
2022-09-06T13:04:45.808Z,61.30
2022-09-06T13:07:22.524Z,61.40
2022-09-06T13:09:58.291Z,61.40
2022-09-06T13:12:41.619Z,61.30
2022-09-06T13:15:29.365Z,61.40
2022-09-06T13:18:23.154Z,61.40
2022-09-06T13:21:15.875Z,61.40
2022-09-06T13:23:49.296Z,61.40
2022-09-06T13:26:38.591Z,61.50
2022-09-06T13:29:24.350Z,61.50
2022-09-06T13:31:56.711Z,61.50
2022-09-06T13:34:36.910Z,61.60
2022-09-06T13:37:13.470Z,61.50
2022-09-06T13:39:48.556Z,61.60
2022-09-06T13:42:37.775Z,61.60
2022-09-06T13:45:32.901Z,61.50
2022-09-06T13:48:19.257Z,61.60
2022-09-06T13:50:53.379Z,61.70
2022-09-06T13:53:23.522Z,61.70
2022-09-06T13:55:54.596Z,61.70
2022-09-06T13:58:24.795Z,61.70
2022-09-06T14:00:57.002Z,61.70
2022-09-06T14:03:34.691Z,61.80
2022-09-06T14:06:04.987Z,61.80
2022-09-06T14:09:02.945Z,61.80
2022-09-06T14:11:26.632Z,61.90
2022-09-06T14:13:56.944Z,61.90
2022-09-06T14:16:27.702Z,61.90
2022-09-06T14:18:58.143Z,61.90
2022-09-06T14:21:28.471Z,62.00
2022-09-06T14:24:03.904Z,61.90
2022-09-06T14:26:35.195Z,62.00
2022-09-06T14:29:05.838Z,62.00
2022-09-06T14:31:36.335Z,62.10
2022-09-06T14:34:06.795Z,62.10
2022-09-06T14:36:37.146Z,62.10
2022-09-06T14:39:07.583Z,62.10
2022-09-06T14:41:38.485Z,62.20
2022-09-06T14:44:08.767Z,62.20
2022-09-06T14:46:39.746Z,62.20
2022-09-06T14:49:12.262Z,62.30
2022-09-06T14:51:43.162Z,62.30
2022-09-06T14:54:15.662Z,62.40
2022-09-06T14:56:46.331Z,63.20
2022-09-06T14:59:16.818Z,62.40
2022-09-06T15:01:47.622Z,62.50
2022-09-06T15:04:18.069Z,62.50
2022-09-06T15:06:49.577Z,62.50
2022-09-06T15:09:20.686Z,62.40
2022-09-06T15:11:55.122Z,62.50
2022-09-06T15:14:31.039Z,62.50
2022-09-06T15:17:02.635Z,62.40
2022-09-06T15:19:35.573Z,62.40
2022-09-06T15:22:07.121Z,62.40
2022-09-06T15:24:38.399Z,62.50
2022-09-06T15:27:08.596Z,62.50
2022-09-06T15:29:39.883Z,62.50
2022-09-06T15:32:10.078Z,62.50
2022-09-06T15:34:40.357Z,62.50
2022-09-06T15:37:10.579Z,62.40
2022-09-06T15:39:40.745Z,62.40
2022-09-06T15:42:11.055Z,62.50
2022-09-06T15:44:41.304Z,62.40
2022-09-06T15:47:11.730Z,62.40
2022-09-06T15:49:42.827Z,62.30
2022-09-06T15:52:14.203Z,62.30
2022-09-06T15:55:02.227Z,62.20
2022-09-06T15:57:32.739Z,62.30
2022-09-06T16:00:02.918Z,62.20
2022-09-06T16:02:33.270Z,62.10
2022-09-06T16:05:03.434Z,62.00
2022-09-06T16:07:33.692Z,61.90
2022-09-06T16:10:03.857Z,61.80
2022-09-06T16:12:34.173Z,61.70
2022-09-06T16:15:05.675Z,61.70
2022-09-06T16:17:36.389Z,61.50
2022-09-06T16:20:06.886Z,61.50
2022-09-06T16:22:37.241Z,61.30
2022-09-06T16:25:07.848Z,62.10
2022-09-06T16:27:38.422Z,61.30
2022-09-06T16:30:09.420Z,61.20
2022-09-06T16:32:39.801Z,61.10
2022-09-06T16:35:10.402Z,61.00
2022-09-06T16:37:40.648Z,61.00
2022-09-06T16:40:11.747Z,60.90
2022-09-06T16:42:41.980Z,60.80
2022-09-06T16:45:13.301Z,60.90
2022-09-06T16:47:43.708Z,60.80
2022-09-06T16:50:14.688Z,60.80
2022-09-06T16:52:44.925Z,60.70
2022-09-06T16:55:15.639Z,60.70
2022-09-06T16:57:45.974Z,60.70
2022-09-06T17:00:17.741Z,60.70
2022-09-06T17:02:49.490Z,60.60
2022-09-06T17:05:19.724Z,60.70
2022-09-06T17:07:50.098Z,60.60
2022-09-06T17:10:20.957Z,60.60
2022-09-06T17:12:51.451Z,60.60
2022-09-06T17:15:21.889Z,60.60
2022-09-06T17:17:52.512Z,60.70
2022-09-06T17:20:22.828Z,60.60
2022-09-06T17:22:53.865Z,60.60
2022-09-06T17:25:24.075Z,60.60
2022-09-06T17:27:54.359Z,60.50
2022-09-06T17:30:24.920Z,60.60
2022-09-06T17:32:57.230Z,60.50
2022-09-06T17:35:27.586Z,60.50
2022-09-06T17:37:57.991Z,60.50
2022-09-06T17:40:28.448Z,60.50
2022-09-06T17:42:58.705Z,60.60
2022-09-06T17:45:29.130Z,60.50
2022-09-06T17:48:00.354Z,60.60
2022-09-06T17:50:33.445Z,60.50
2022-09-06T17:53:04.134Z,60.50
2022-09-06T17:55:34.288Z,60.50
2022-09-06T17:58:05.002Z,60.50
2022-09-06T18:00:35.581Z,60.50
2022-09-06T18:03:05.859Z,60.60
2022-09-06T18:05:43.285Z,60.60
2022-09-06T18:08:14.804Z,60.60
2022-09-06T18:10:47.088Z,60.50
2022-09-06T18:13:17.629Z,60.60
2022-09-06T18:15:48.149Z,60.60
2022-09-06T18:18:20.057Z,60.60
2022-09-06T18:20:53.745Z,60.60
2022-09-06T18:23:24.086Z,60.60
2022-09-06T18:26:07.007Z,60.60
2022-09-06T18:28:39.341Z,60.60
2022-09-06T18:31:12.171Z,60.60
2022-09-06T18:33:43.948Z,60.60
2022-09-06T18:36:17.172Z,60.60
2022-09-06T18:38:48.337Z,60.60
2022-09-06T18:41:37.199Z,60.70
2022-09-06T18:44:08.757Z,60.60
2022-09-06T18:46:40.437Z,60.70
2022-09-06T18:49:11.080Z,60.70
2022-09-06T18:51:42.779Z,60.70
2022-09-06T18:54:13.240Z,60.70
2022-09-06T18:56:46.353Z,60.70
2022-09-06T18:59:17.273Z,60.70
2022-09-06T19:01:48.191Z,60.70
2022-09-06T19:04:19.396Z,60.80
2022-09-06T19:06:49.635Z,60.80
2022-09-06T19:09:20.652Z,60.80
2022-09-06T19:11:53.279Z,60.80
2022-09-06T19:14:23.901Z,60.90
2022-09-06T19:16:55.760Z,60.90
2022-09-06T19:19:26.164Z,60.80
2022-09-06T19:21:57.041Z,60.90
2022-09-06T19:24:27.584Z,60.90
2022-09-06T19:26:58.114Z,60.90
2022-09-06T19:29:29.346Z,60.90
2022-09-06T19:31:59.978Z,60.90
2022-09-06T19:34:30.880Z,60.90
2022-09-06T19:37:01.242Z,61.00
2022-09-06T19:39:37.001Z,61.00
2022-09-06T19:42:08.079Z,60.90
2022-09-06T19:44:38.713Z,61.00
2022-09-06T19:47:09.240Z,60.90
2022-09-06T19:49:39.535Z,60.90
2022-09-06T19:52:13.200Z,61.00
2022-09-06T19:54:44.491Z,61.00
2022-09-06T19:57:14.627Z,61.00
2022-09-06T19:59:45.033Z,61.00
2022-09-06T20:02:15.273Z,61.80
2022-09-06T20:04:45.914Z,61.10
2022-09-06T20:07:16.147Z,61.00
2022-09-06T20:09:50.592Z,61.10
2022-09-06T20:12:22.530Z,61.00
2022-09-06T20:14:53.183Z,61.10
2022-09-06T20:17:33.883Z,61.10
2022-09-06T20:20:05.646Z,61.10
2022-09-06T20:22:35.840Z,61.20
2022-09-06T20:25:07.270Z,61.10
2022-09-06T20:27:39.320Z,61.20
2022-09-06T20:30:12.049Z,61.20
2022-09-06T20:32:42.314Z,61.10
2022-09-06T20:35:12.654Z,61.20
2022-09-06T20:37:42.850Z,61.20
2022-09-06T20:40:15.190Z,61.20
2022-09-06T20:42:47.650Z,61.20
2022-09-06T20:45:19.671Z,61.20
2022-09-06T20:47:49.801Z,61.20
2022-09-06T20:50:20.092Z,61.30
2022-09-06T20:52:50.219Z,61.30
2022-09-06T20:55:20.833Z,61.30
2022-09-06T20:57:51.043Z,61.30
2022-09-06T21:00:27.805Z,61.30
2022-09-06T21:02:58.133Z,61.30
2022-09-06T21:05:28.604Z,61.30
2022-09-06T21:07:58.788Z,61.40
2022-09-06T21:10:29.039Z,61.40
2022-09-06T21:12:59.255Z,61.40
2022-09-06T21:15:29.540Z,61.40
2022-09-06T21:17:59.692Z,61.50
2022-09-06T21:20:29.959Z,62.20
2022-09-06T21:23:00.301Z,61.60
2022-09-06T21:25:30.502Z,61.70
2022-09-06T21:28:00.742Z,61.80
2022-09-06T21:30:30.925Z,61.80
2022-09-06T21:33:01.134Z,61.90
2022-09-06T21:35:31.354Z,62.00
2022-09-06T21:38:01.612Z,62.10
2022-09-06T21:40:31.796Z,62.10
2022-09-06T21:43:02.054Z,62.20
2022-09-06T21:45:32.481Z,62.20
2022-09-06T21:48:02.586Z,62.20
2022-09-06T21:50:35.437Z,62.20
2022-09-06T21:53:05.887Z,62.20
2022-09-06T21:55:36.181Z,62.20
2022-09-06T21:58:06.533Z,62.30
2022-09-06T22:00:37.608Z,62.20
2022-09-06T22:03:09.416Z,62.20
2022-09-06T22:05:39.599Z,62.20
2022-09-06T22:08:10.158Z,62.30
2022-09-06T22:10:40.571Z,62.30
2022-09-06T22:13:10.976Z,62.50
2022-09-06T22:15:42.301Z,62.50
2022-09-06T22:18:12.995Z,62.50
2022-09-06T22:20:43.214Z,62.50
2022-09-06T22:23:13.458Z,62.60
2022-09-06T22:25:44.561Z,62.60
2022-09-06T22:28:14.754Z,62.60
2022-09-06T22:30:45.526Z,62.60
2022-09-06T22:33:15.728Z,62.70
2022-09-06T22:35:45.974Z,62.90
2022-09-06T22:41:00.101Z,62.70
2022-09-06T22:43:30.497Z,62.60
2022-09-06T22:46:12.260Z,62.40
2022-09-06T22:48:42.775Z,62.20
2022-09-06T22:51:13.440Z,62.30
2022-09-06T22:53:43.818Z,62.40
2022-09-06T22:56:14.135Z,62.10
2022-09-06T22:58:44.367Z,61.70
2022-09-06T23:01:16.832Z,61.60
2022-09-06T23:03:48.146Z,61.50
2022-09-06T23:06:18.366Z,61.40
2022-09-06T23:08:48.599Z,61.40
2022-09-06T23:11:21.024Z,61.20
2022-09-06T23:13:51.285Z,61.10
2022-09-06T23:16:22.855Z,61.00
2022-09-06T23:18:53.761Z,60.90
2022-09-06T23:21:25.901Z,60.90
2022-09-06T23:23:57.941Z,60.70
2022-09-06T23:26:32.091Z,60.80
2022-09-06T23:29:02.881Z,61.00
2022-09-06T23:31:34.273Z,61.30
2022-09-06T23:34:06.930Z,61.30
2022-09-06T23:36:37.129Z,61.10
2022-09-06T23:39:09.280Z,61.00
2022-09-06T23:41:39.928Z,61.00
2022-09-06T23:44:10.470Z,60.90
2022-09-06T23:46:40.714Z,61.30
2022-09-06T23:49:10.921Z,61.10
2022-09-06T23:51:41.328Z,61.00
2022-09-06T23:54:11.732Z,60.90
2022-09-06T23:56:42.092Z,60.50
2022-09-06T23:59:12.426Z,60.70
